createdAt,value
2024-03-08T00:00:22.754Z,85.18
2024-03-08T00:03:24.697Z,86.70
2024-03-08T00:06:27.853Z,86.52
2024-03-08T00:09:29.612Z,86.13
2024-03-08T00:12:31.444Z,86.83
2024-03-08T00:15:33.204Z,87.32
2024-03-08T00:18:35.148Z,87.52
2024-03-08T00:21:38.343Z,87.62
2024-03-08T00:24:40.178Z,86.46
2024-03-08T00:27:42.052Z,86.48
2024-03-08T00:30:43.924Z,87.07
2024-03-08T00:33:45.801Z,88.76
2024-03-08T00:36:49.137Z,88.16
2024-03-08T00:39:51.132Z,87.92
2024-03-08T00:42:53.121Z,87.88
2024-03-08T00:45:55.003Z,86.80
2024-03-08T00:48:57.052Z,87.53
2024-03-08T00:52:00.466Z,87.70
2024-03-08T00:55:02.339Z,87.60
2024-03-08T00:58:04.489Z,88.19
2024-03-08T01:01:06.302Z,87.69
2024-03-08T01:04:08.138Z,88.27
2024-03-08T01:07:11.317Z,87.79
2024-03-08T01:10:13.378Z,86.62
2024-03-08T01:13:15.241Z,86.78
2024-03-08T01:16:17.130Z,87.33
2024-03-08T01:19:19.051Z,87.74
2024-03-08T01:22:22.346Z,87.29
2024-03-08T01:25:24.133Z,87.43
2024-03-08T01:28:26.637Z,87.40
2024-03-08T01:31:28.523Z,87.40
2024-03-08T01:34:30.433Z,87.43
2024-03-08T01:37:33.590Z,87.66
2024-03-08T01:40:35.312Z,87.61
2024-03-08T01:43:37.207Z,88.48
2024-03-08T01:46:39.022Z,88.25
2024-03-08T01:49:40.850Z,87.54
2024-03-08T01:52:44.399Z,87.32
2024-03-08T01:55:47.751Z,87.33
2024-03-08T01:58:50.037Z,87.46
2024-03-08T02:01:52.020Z,87.73
2024-03-08T02:04:53.782Z,88.43
2024-03-08T02:07:57.415Z,88.49
2024-03-08T02:11:00.027Z,86.69
2024-03-08T02:14:01.592Z,88.47
2024-03-08T02:17:03.810Z,87.63
2024-03-08T02:20:06.397Z,87.88
2024-03-08T02:23:09.835Z,87.46
2024-03-08T02:26:11.826Z,87.26
2024-03-08T02:29:14.197Z,87.97
2024-03-08T02:32:15.990Z,88.43
2024-03-08T02:35:17.726Z,87.73
2024-03-08T02:38:23.601Z,87.74
2024-03-08T02:41:25.408Z,88.15
2024-03-08T02:44:27.178Z,89.31
2024-03-08T02:47:29.130Z,88.60
2024-03-08T02:50:31.138Z,87.38
2024-03-08T02:53:34.373Z,87.29
2024-03-08T02:56:36.472Z,88.00
2024-03-08T02:59:38.442Z,88.35
2024-03-08T03:02:40.511Z,87.78
2024-03-08T03:05:44.267Z,87.23
2024-03-08T03:08:49.534Z,88.19
2024-03-08T03:11:51.463Z,87.89
2024-03-08T03:14:53.340Z,88.17
2024-03-08T03:17:55.489Z,87.79
2024-03-08T03:20:57.586Z,87.91
2024-03-08T03:24:00.928Z,88.04
2024-03-08T03:27:02.780Z,87.42
2024-03-08T03:30:05.787Z,87.32
2024-03-08T03:33:07.714Z,88.02
2024-03-08T03:36:09.848Z,88.00
2024-03-08T03:39:13.260Z,87.14
2024-03-08T03:42:15.189Z,87.90
2024-03-08T03:45:17.156Z,87.74
2024-03-08T03:48:19.005Z,88.39
2024-03-08T03:51:21.054Z,88.09
2024-03-08T03:54:24.304Z,87.41
2024-03-08T03:57:26.088Z,87.24
2024-03-08T04:00:28.720Z,87.30
2024-03-08T04:03:30.317Z,88.31
2024-03-08T04:06:32.085Z,88.83
2024-03-08T04:09:42.285Z,88.11
2024-03-08T04:12:44.126Z,89.13
2024-03-08T04:15:48.979Z,87.75
2024-03-08T04:18:51.846Z,88.62
2024-03-08T04:21:53.744Z,88.15
2024-03-08T04:24:57.105Z,88.67
2024-03-08T04:27:58.937Z,89.09
2024-03-08T04:31:01.433Z,88.41
2024-03-08T04:34:03.278Z,87.25
2024-03-08T04:37:05.171Z,87.23
2024-03-08T04:40:09.108Z,88.45
2024-03-08T04:43:11.201Z,88.21
2024-03-08T04:46:13.436Z,88.14
2024-03-08T04:49:15.209Z,87.15
2024-03-08T04:52:17.532Z,88.44
2024-03-08T04:55:20.738Z,88.45
2024-03-08T04:58:22.875Z,87.05
2024-03-08T05:01:24.641Z,88.09
2024-03-08T05:04:26.414Z,87.29
2024-03-08T05:07:28.216Z,88.11
2024-03-08T05:10:31.521Z,87.62
2024-03-08T05:13:33.302Z,88.74
2024-03-08T05:16:35.149Z,87.61
2024-03-08T05:19:37.443Z,88.56
2024-03-08T05:22:39.420Z,88.03
2024-03-08T05:25:42.611Z,88.29
2024-03-08T05:28:44.395Z,87.17
2024-03-08T05:31:48.677Z,87.86
2024-03-08T05:34:50.467Z,87.06
2024-03-08T05:37:52.251Z,88.22
2024-03-08T05:40:55.726Z,87.99
2024-03-08T05:43:57.720Z,87.60
2024-03-08T05:46:59.649Z,87.64
2024-03-08T05:50:01.463Z,86.41
2024-03-08T05:53:03.320Z,87.59
2024-03-08T05:56:07.308Z,86.92
2024-03-08T05:59:09.110Z,86.48
2024-03-08T06:02:10.869Z,86.36
2024-03-08T06:05:12.773Z,86.26
2024-03-08T06:08:14.609Z,86.29
2024-03-08T06:11:18.672Z,87.39
2024-03-08T06:14:20.475Z,86.83
2024-03-08T06:17:22.236Z,87.69
2024-03-08T06:20:24.063Z,87.52
2024-03-08T06:23:25.968Z,87.57
2024-03-08T06:26:30.644Z,87.25
2024-03-08T06:29:33.170Z,87.81
2024-03-08T06:32:35.019Z,86.93
2024-03-08T06:35:36.916Z,86.98
2024-03-08T06:38:38.861Z,87.16
2024-03-08T06:41:42.109Z,86.90
2024-03-08T06:44:43.882Z,88.20
2024-03-08T06:47:45.820Z,87.77
2024-03-08T06:50:48.610Z,86.65
2024-03-08T06:53:50.779Z,88.30
2024-03-08T06:56:53.997Z,87.22
2024-03-08T06:59:55.997Z,87.68
2024-03-08T07:02:57.839Z,86.45
2024-03-08T07:05:59.687Z,87.88
2024-03-08T07:09:01.509Z,87.01
2024-03-08T07:12:05.344Z,86.68
2024-03-08T07:15:08.103Z,87.24
2024-03-08T07:18:10.014Z,86.25
2024-03-08T07:21:11.868Z,87.47
2024-03-08T07:24:14.023Z,86.01
2024-03-08T07:27:17.783Z,86.96
2024-03-08T07:30:20.307Z,86.81
2024-03-08T07:33:22.120Z,85.45
2024-03-08T07:36:24.182Z,85.25
2024-03-08T07:39:26.066Z,86.82
2024-03-08T07:42:29.252Z,86.25
2024-03-08T07:45:31.047Z,85.39
2024-03-08T07:48:32.940Z,86.35
2024-03-08T07:51:34.738Z,85.89
2024-03-08T07:54:36.640Z,86.30
2024-03-08T07:57:39.888Z,84.88
2024-03-08T08:00:41.677Z,85.32
2024-03-08T08:03:43.477Z,84.43
2024-03-08T08:06:45.236Z,85.68
2024-03-08T08:09:46.985Z,85.88
2024-03-08T08:12:50.622Z,86.20
2024-03-08T08:15:52.388Z,85.40
2024-03-08T08:18:54.305Z,86.08
2024-03-08T08:21:56.087Z,85.78
2024-03-08T08:24:57.897Z,86.08
2024-03-08T08:28:01.308Z,85.92
2024-03-08T08:31:03.478Z,85.60
2024-03-08T08:34:05.196Z,84.54
2024-03-08T08:37:12.657Z,84.45
2024-03-08T08:40:14.761Z,83.99
2024-03-08T08:43:17.982Z,83.49
2024-03-08T08:46:21.330Z,83.23
2024-03-08T08:49:31.999Z,82.88
2024-03-08T08:52:33.887Z,82.10
2024-03-08T08:55:35.665Z,81.75
2024-03-08T09:05:20.556Z,78.51
2024-03-08T09:11:53.559Z,78.57
2024-03-08T09:14:55.473Z,77.47
2024-03-08T09:17:57.751Z,75.54
2024-03-08T09:20:59.781Z,75.66
2024-03-08T09:24:01.818Z,74.88
2024-03-08T09:27:05.683Z,73.87
2024-03-08T09:30:08.878Z,73.44
2024-03-08T09:36:28.765Z,71.92
2024-03-08T09:39:32.683Z,71.11
2024-03-08T09:42:45.464Z,71.39
2024-03-08T09:49:19.475Z,69.27
2024-03-08T09:52:22.866Z,69.31
2024-03-08T09:55:28.405Z,68.16
2024-03-08T09:58:31.946Z,66.72
2024-03-08T10:01:44.591Z,66.31
2024-03-08T10:08:03.107Z,64.64
2024-03-08T10:11:05.687Z,65.33
2024-03-08T10:14:09.608Z,65.51
2024-03-08T10:17:11.421Z,62.90
2024-03-08T10:20:16.508Z,62.88
2024-03-08T10:23:19.879Z,62.49
2024-03-08T10:26:23.021Z,61.78
2024-03-08T10:29:25.136Z,61.58
2024-03-08T10:32:27.040Z,63.06
2024-03-08T10:35:28.931Z,61.56
2024-03-08T10:38:34.458Z,62.45
2024-03-08T10:41:38.685Z,60.43
2024-03-08T10:48:27.240Z,59.30
2024-03-08T10:51:31.533Z,59.93
2024-03-08T10:54:49.770Z,59.92
2024-03-08T10:57:53.011Z,59.01
2024-03-08T11:00:56.040Z,59.10
2024-03-08T11:03:57.949Z,57.87
2024-03-08T11:07:02.277Z,57.82
2024-03-08T11:10:04.519Z,58.50
2024-03-08T11:13:33.874Z,58.22
2024-03-08T11:19:48.123Z,57.24
2024-03-08T11:22:51.611Z,55.74
2024-03-08T11:25:53.512Z,55.85
2024-03-08T11:28:56.772Z,56.96
2024-03-08T11:32:05.312Z,54.87
2024-03-08T11:35:10.170Z,54.72
2024-03-08T11:38:24.516Z,56.23
2024-03-08T11:41:29.732Z,54.51
2024-03-08T11:44:32.973Z,54.17
2024-03-08T11:47:36.263Z,53.02
2024-03-08T11:50:38.115Z,53.03
2024-03-08T11:53:40.134Z,54.19
2024-03-08T12:00:16.172Z,53.33
2024-03-08T12:03:17.985Z,53.30
2024-03-08T12:06:20.506Z,51.29
2024-03-08T12:09:22.494Z,51.31
2024-03-08T12:12:26.234Z,50.90
2024-03-08T12:18:44.510Z,50.57
2024-03-08T12:24:59.482Z,49.80
2024-03-08T12:28:08.949Z,52.65
2024-03-08T12:34:28.223Z,53.13
2024-03-08T12:37:30.492Z,53.38
2024-03-08T12:40:33.555Z,53.14
2024-03-08T12:46:53.438Z,52.27
2024-03-08T12:49:57.560Z,53.02
2024-03-08T12:53:02.168Z,51.53
2024-03-08T12:56:05.373Z,51.36
2024-03-08T12:59:08.794Z,51.07
2024-03-08T13:02:10.713Z,50.27
2024-03-08T13:05:14.042Z,49.74
2024-03-08T13:11:23.899Z,50.90
2024-03-08T13:17:43.839Z,49.42
2024-03-08T13:20:48.341Z,49.05
2024-03-08T13:23:50.482Z,47.99
2024-03-08T13:26:52.162Z,48.23
2024-03-08T13:30:01.747Z,48.75
2024-03-08T13:49:23.762Z,45.74
2024-03-08T13:52:27.608Z,46.02
2024-03-08T13:55:29.582Z,47.41
2024-03-08T14:01:41.535Z,47.49
2024-03-08T14:04:46.242Z,46.68
2024-03-08T14:11:07.751Z,47.47
2024-03-08T14:14:09.652Z,47.80
2024-03-08T14:17:12.009Z,49.01
2024-03-08T14:23:38.201Z,44.49
2024-03-08T14:26:51.352Z,45.43
2024-03-08T14:30:06.097Z,45.60
2024-03-08T14:33:09.076Z,46.60
2024-03-08T14:39:47.705Z,45.34
2024-03-08T14:46:07.035Z,45.93
2024-03-08T14:59:29.889Z,44.47
2024-03-08T15:09:48.774Z,47.88
2024-03-08T15:16:01.968Z,46.77
2024-03-08T15:22:09.452Z,44.42
2024-03-08T15:28:25.844Z,42.97
2024-03-08T15:37:53.362Z,44.07
2024-03-08T15:40:55.601Z,44.09
2024-03-08T15:50:45.939Z,43.44
2024-03-08T16:10:46.497Z,42.38
2024-03-08T16:24:13.827Z,44.71
2024-03-08T16:34:14.073Z,45.10
2024-03-08T16:40:33.727Z,45.05
2024-03-08T16:43:44.409Z,45.13
2024-03-08T16:46:47.846Z,45.95
2024-03-08T16:49:51.494Z,48.44
2024-03-08T16:56:14.729Z,48.22
2024-03-08T16:59:25.529Z,48.78
2024-03-08T17:02:28.016Z,50.18
2024-03-08T17:05:32.025Z,54.95
2024-03-08T17:08:33.812Z,54.98
2024-03-08T17:17:59.407Z,54.15
2024-03-08T17:21:02.783Z,54.99
2024-03-08T17:24:06.647Z,56.85
2024-03-08T17:30:25.740Z,57.37
2024-03-08T17:33:33.421Z,57.78
2024-03-08T17:36:40.911Z,57.49
2024-03-08T17:39:44.538Z,58.75
2024-03-08T17:42:49.993Z,59.11
2024-03-08T17:49:12.570Z,59.94
2024-03-08T17:52:14.986Z,60.65
2024-03-08T17:55:19.251Z,61.00
2024-03-08T18:01:23.336Z,61.53
2024-03-08T18:07:43.757Z,62.55
2024-03-08T18:10:47.162Z,63.00
2024-03-08T18:13:49.782Z,63.36
2024-03-08T18:16:51.861Z,63.94
2024-03-08T18:19:54.794Z,64.09
2024-03-08T18:22:56.786Z,64.14
2024-03-08T18:26:10.880Z,65.42
2024-03-08T18:29:14.128Z,65.42
2024-03-08T18:32:15.931Z,65.86
2024-03-08T18:35:18.127Z,66.58
2024-03-08T18:38:20.557Z,66.07
2024-03-08T18:41:22.536Z,66.97
2024-03-08T18:44:25.775Z,67.99
2024-03-08T18:47:27.623Z,67.80
2024-03-08T18:50:29.489Z,69.08
2024-03-08T18:53:31.306Z,68.54
2024-03-08T18:56:39.758Z,69.66
2024-03-08T18:59:49.650Z,69.87
2024-03-08T19:02:53.941Z,70.62
2024-03-08T19:06:03.448Z,70.81
2024-03-08T19:09:05.952Z,70.57
2024-03-08T19:12:11.737Z,70.53
2024-03-08T19:15:15.795Z,71.27
2024-03-08T19:18:17.971Z,71.24
2024-03-08T19:21:20.841Z,73.15
2024-03-08T19:24:24.395Z,73.07
2024-03-08T19:27:27.077Z,74.22
2024-03-08T19:30:30.434Z,73.23
2024-03-08T19:33:32.709Z,73.80
2024-03-08T19:36:34.914Z,73.55
2024-03-08T19:39:37.292Z,73.12
2024-03-08T19:42:39.017Z,73.41
2024-03-08T19:45:42.205Z,73.95
2024-03-08T19:48:43.965Z,74.51
2024-03-08T19:51:45.754Z,74.80
2024-03-08T19:54:48.540Z,74.47
2024-03-08T19:57:51.943Z,74.69
2024-03-08T20:00:55.558Z,73.85
2024-03-08T20:03:57.408Z,73.69
2024-03-08T20:06:59.134Z,73.04
2024-03-08T20:10:07.758Z,72.17
2024-03-08T20:13:09.768Z,72.18
2024-03-08T20:16:12.931Z,73.34
2024-03-08T20:19:16.068Z,73.83
2024-03-08T20:22:17.868Z,74.38
2024-03-08T20:25:21.047Z,74.50
2024-03-08T20:28:24.063Z,74.38
2024-03-08T20:31:27.404Z,74.46
2024-03-08T20:34:29.307Z,73.53
2024-03-08T20:37:31.207Z,73.56
2024-03-08T20:40:33.819Z,72.84
2024-03-08T20:43:35.677Z,73.04
2024-03-08T20:46:40.041Z,72.33
2024-03-08T20:49:45.912Z,72.28
2024-03-08T20:52:48.076Z,72.75
2024-03-08T20:55:53.629Z,73.00
2024-03-08T20:58:55.883Z,73.38
2024-03-08T21:02:01.764Z,73.03
2024-03-08T21:05:04.026Z,72.80
2024-03-08T21:08:09.386Z,73.73
2024-03-08T21:11:11.427Z,72.86
2024-03-08T21:14:13.453Z,73.40
2024-03-08T21:17:16.684Z,74.07
2024-03-08T21:20:19.600Z,74.11
2024-03-08T21:23:22.834Z,73.61
2024-03-08T21:26:25.249Z,73.53
2024-03-08T21:29:27.026Z,73.19
2024-03-08T21:32:30.205Z,73.48
2024-03-08T21:35:32.134Z,73.39
2024-03-08T21:38:33.943Z,73.21
2024-03-08T21:41:35.808Z,73.09
2024-03-08T21:44:37.701Z,73.41
2024-03-08T21:47:40.942Z,73.40
2024-03-08T21:50:42.739Z,73.66
2024-03-08T21:53:44.558Z,72.93
2024-03-08T21:56:46.383Z,72.93
2024-03-08T21:59:48.149Z,72.55
2024-03-08T22:02:51.735Z,72.81
2024-03-08T22:05:53.605Z,72.39
2024-03-08T22:08:55.603Z,72.84
2024-03-08T22:11:58.574Z,73.14
2024-03-08T22:15:00.642Z,73.03
2024-03-08T22:18:04.002Z,72.62
2024-03-08T22:21:06.371Z,72.47
2024-03-08T22:24:08.251Z,72.74
2024-03-08T22:27:10.442Z,73.02
2024-03-08T22:30:13.564Z,72.90
2024-03-08T22:33:16.828Z,72.49
2024-03-08T22:36:18.628Z,72.30
2024-03-08T22:39:20.393Z,72.54
2024-03-08T22:42:22.740Z,72.53
2024-03-08T22:45:25.065Z,72.66
2024-03-08T22:48:28.632Z,72.80
2024-03-08T22:51:30.790Z,73.17
2024-03-08T22:54:32.533Z,72.62
2024-03-08T22:57:34.497Z,72.97
2024-03-08T23:00:36.306Z,72.41
2024-03-08T23:03:39.477Z,72.46
2024-03-08T23:06:41.440Z,73.26
2024-03-08T23:09:50.216Z,73.28
2024-03-08T23:12:52.095Z,73.35
2024-03-08T23:15:53.936Z,72.98
2024-03-08T23:18:57.539Z,73.64
2024-03-08T23:21:59.592Z,73.53
2024-03-08T23:25:01.389Z,73.55
2024-03-08T23:28:03.392Z,73.93
2024-03-08T23:31:05.309Z,73.19
2024-03-08T23:34:08.519Z,73.59
2024-03-08T23:37:10.985Z,73.43
2024-03-08T23:40:14.568Z,73.36
2024-03-08T23:43:16.329Z,73.93
2024-03-08T23:46:18.125Z,73.81
2024-03-08T23:49:21.254Z,74.62
2024-03-08T23:52:23.192Z,73.91
2024-03-08T23:55:25.226Z,74.13
2024-03-08T23:58:27.038Z,73.61
